sensor_id;sensor_type;location;lat;lon;timestamp;temperature;humidity
11152;DHT22;5630;49.342;10.802;2024-03-02T00:00:01;7.40;99.90
11152;DHT22;5630;49.342;10.802;2024-03-02T00:02:39;7.40;99.90
11152;DHT22;5630;49.342;10.802;2024-03-02T00:05:06;7.30;99.90
11152;DHT22;5630;49.342;10.802;2024-03-02T00:07:31;7.30;99.90
11152;DHT22;5630;49.342;10.802;2024-03-02T00:09:57;7.20;99.90
11152;DHT22;5630;49.342;10.802;2024-03-02T00:12:23;7.20;99.90
11152;DHT22;5630;49.342;10.802;2024-03-02T00:14:48;7.20;99.90
11152;DHT22;5630;49.342;10.802;2024-03-02T00:17:21;7.20;99.90
11152;DHT22;5630;49.342;10.802;2024-03-02T00:19:49;7.20;99.90
11152;DHT22;5630;49.342;10.802;2024-03-02T00:22:15;7.20;99.90
11152;DHT22;5630;49.342;10.802;2024-03-02T00:24:41;7.20;99.90
11152;DHT22;5630;49.342;10.802;2024-03-02T00:27:07;7.10;99.90
11152;DHT22;5630;49.342;10.802;2024-03-02T00:29:34;7.10;99.90
11152;DHT22;5630;49.342;10.802;2024-03-02T00:32:01;7.10;99.90
11152;DHT22;5630;49.342;10.802;2024-03-02T00:34:26;7.10;99.90
11152;DHT22;5630;49.342;10.802;2024-03-02T00:36:52;7.10;99.90
11152;DHT22;5630;49.342;10.802;2024-03-02T00:39:18;7.00;99.90
11152;DHT22;5630;49.342;10.802;2024-03-02T00:41:44;7.00;99.90
11152;DHT22;5630;49.342;10.802;2024-03-02T00:44:12;7.00;99.90
11152;DHT22;5630;49.342;10.802;2024-03-02T00:46:39;7.00;99.90
11152;DHT22;5630;49.342;10.802;2024-03-02T00:49:25;7.00;99.90
11152;DHT22;5630;49.342;10.802;2024-03-02T00:51:53;7.00;99.90
11152;DHT22;5630;49.342;10.802;2024-03-02T00:54:28;7.00;99.90
11152;DHT22;5630;49.342;10.802;2024-03-02T00:56:55;7.00;99.90
11152;DHT22;5630;49.342;10.802;2024-03-02T00:59:22;6.90;99.90
11152;DHT22;5630;49.342;10.802;2024-03-02T01:01:48;7.00;99.90
11152;DHT22;5630;49.342;10.802;2024-03-02T01:04:14;6.90;99.90
11152;DHT22;5630;49.342;10.802;2024-03-02T01:06:41;6.90;99.90
11152;DHT22;5630;49.342;10.802;2024-03-02T01:09:07;6.90;99.90
11152;DHT22;5630;49.342;10.802;2024-03-02T01:11:32;6.90;99.90
11152;DHT22;5630;49.342;10.802;2024-03-02T01:13:58;6.90;99.90
11152;DHT22;5630;49.342;10.802;2024-03-02T01:16:24;6.90;99.90
11152;DHT22;5630;49.342;10.802;2024-03-02T01:18:49;6.80;99.90
11152;DHT22;5630;49.342;10.802;2024-03-02T01:21:15;6.80;99.90
11152;DHT22;5630;49.342;10.802;2024-03-02T01:23:40;6.80;99.90
11152;DHT22;5630;49.342;10.802;2024-03-02T01:26:06;6.80;99.90
11152;DHT22;5630;49.342;10.802;2024-03-02T01:28:32;6.80;99.90
11152;DHT22;5630;49.342;10.802;2024-03-02T01:30:58;6.80;99.90
11152;DHT22;5630;49.342;10.802;2024-03-02T01:33:23;6.80;99.90
11152;DHT22;5630;49.342;10.802;2024-03-02T01:35:49;6.80;99.90
11152;DHT22;5630;49.342;10.802;2024-03-02T01:38:14;6.90;99.90
11152;DHT22;5630;49.342;10.802;2024-03-02T01:40:40;6.90;99.90
11152;DHT22;5630;49.342;10.802;2024-03-02T01:43:07;6.90;99.90
11152;DHT22;5630;49.342;10.802;2024-03-02T01:45:33;6.90;99.90
11152;DHT22;5630;49.342;10.802;2024-03-02T01:47:59;6.90;99.90
11152;DHT22;5630;49.342;10.802;2024-03-02T01:50:26;6.80;99.90
11152;DHT22;5630;49.342;10.802;2024-03-02T01:52:52;6.80;99.90
11152;DHT22;5630;49.342;10.802;2024-03-02T01:55:18;6.80;99.90
11152;DHT22;5630;49.342;10.802;2024-03-02T01:57:44;6.80;99.90
11152;DHT22;5630;49.342;10.802;2024-03-02T02:00:10;6.70;99.90
11152;DHT22;5630;49.342;10.802;2024-03-02T02:02:36;6.70;99.90
11152;DHT22;5630;49.342;10.802;2024-03-02T02:05:02;6.70;99.90
11152;DHT22;5630;49.342;10.802;2024-03-02T02:07:27;6.70;99.90
11152;DHT22;5630;49.342;10.802;2024-03-02T02:09:53;6.70;99.90
11152;DHT22;5630;49.342;10.802;2024-03-02T02:12:19;6.70;99.90
11152;DHT22;5630;49.342;10.802;2024-03-02T02:14:48;6.70;99.90
11152;DHT22;5630;49.342;10.802;2024-03-02T02:17:15;6.70;99.90
11152;DHT22;5630;49.342;10.802;2024-03-02T02:19:41;6.70;99.90
11152;DHT22;5630;49.342;10.802;2024-03-02T02:22:06;6.70;99.90
11152;DHT22;5630;49.342;10.802;2024-03-02T02:24:32;6.70;99.90
11152;DHT22;5630;49.342;10.802;2024-03-02T02:26:58;6.70;99.90
11152;DHT22;5630;49.342;10.802;2024-03-02T02:29:23;6.70;99.90
11152;DHT22;5630;49.342;10.802;2024-03-02T02:31:49;6.60;99.90
11152;DHT22;5630;49.342;10.802;2024-03-02T02:34:14;6.60;99.90
11152;DHT22;5630;49.342;10.802;2024-03-02T02:36:41;6.60;99.90
11152;DHT22;5630;49.342;10.802;2024-03-02T02:39:11;6.50;99.90
11152;DHT22;5630;49.342;10.802;2024-03-02T02:41:39;6.40;99.90
11152;DHT22;5630;49.342;10.802;2024-03-02T02:44:05;6.40;99.90
11152;DHT22;5630;49.342;10.802;2024-03-02T02:46:30;6.30;99.90
11152;DHT22;5630;49.342;10.802;2024-03-02T02:48:56;6.30;99.90
11152;DHT22;5630;49.342;10.802;2024-03-02T02:51:21;6.30;99.90
11152;DHT22;5630;49.342;10.802;2024-03-02T02:53:47;6.30;99.90
11152;DHT22;5630;49.342;10.802;2024-03-02T02:56:12;6.30;99.90
11152;DHT22;5630;49.342;10.802;2024-03-02T02:58:40;6.30;99.90
11152;DHT22;5630;49.342;10.802;2024-03-02T03:01:06;6.30;99.90
11152;DHT22;5630;49.342;10.802;2024-03-02T03:03:31;6.30;99.90
11152;DHT22;5630;49.342;10.802;2024-03-02T03:05:57;6.30;99.90
11152;DHT22;5630;49.342;10.802;2024-03-02T03:08:22;6.20;99.90
11152;DHT22;5630;49.342;10.802;2024-03-02T03:10:49;6.20;99.90
11152;DHT22;5630;49.342;10.802;2024-03-02T03:13:15;6.20;99.90
11152;DHT22;5630;49.342;10.802;2024-03-02T03:15:40;6.20;99.90
11152;DHT22;5630;49.342;10.802;2024-03-02T03:18:06;6.20;99.90
11152;DHT22;5630;49.342;10.802;2024-03-02T03:20:33;6.10;99.90
11152;DHT22;5630;49.342;10.802;2024-03-02T03:22:59;6.10;99.90
11152;DHT22;5630;49.342;10.802;2024-03-02T03:25:25;6.00;99.90
11152;DHT22;5630;49.342;10.802;2024-03-02T03:27:50;6.00;99.90
11152;DHT22;5630;49.342;10.802;2024-03-02T03:30:18;6.00;99.90
11152;DHT22;5630;49.342;10.802;2024-03-02T03:32:44;5.90;99.90
11152;DHT22;5630;49.342;10.802;2024-03-02T03:35:09;5.90;99.90
11152;DHT22;5630;49.342;10.802;2024-03-02T03:37:35;5.90;99.90
11152;DHT22;5630;49.342;10.802;2024-03-02T03:40:01;5.90;99.90
11152;DHT22;5630;49.342;10.802;2024-03-02T03:42:28;5.90;99.90
11152;DHT22;5630;49.342;10.802;2024-03-02T03:44:53;5.90;99.90
11152;DHT22;5630;49.342;10.802;2024-03-02T03:47:19;5.90;99.90
11152;DHT22;5630;49.342;10.802;2024-03-02T03:49:45;5.90;99.90
11152;DHT22;5630;49.342;10.802;2024-03-02T03:52:11;5.90;99.90
11152;DHT22;5630;49.342;10.802;2024-03-02T03:54:36;5.90;99.90
11152;DHT22;5630;49.342;10.802;2024-03-02T03:57:04;5.90;99.90
11152;DHT22;5630;49.342;10.802;2024-03-02T03:59:29;5.90;99.90
11152;DHT22;5630;49.342;10.802;2024-03-02T04:01:55;5.90;99.90
11152;DHT22;5630;49.342;10.802;2024-03-02T04:04:20;5.90;99.90
11152;DHT22;5630;49.342;10.802;2024-03-02T04:06:46;5.90;99.90
11152;DHT22;5630;49.342;10.802;2024-03-02T04:09:12;5.90;99.90
11152;DHT22;5630;49.342;10.802;2024-03-02T04:11:37;5.90;99.90
11152;DHT22;5630;49.342;10.802;2024-03-02T04:14:03;5.90;99.90
11152;DHT22;5630;49.342;10.802;2024-03-02T04:16:29;5.90;99.90
11152;DHT22;5630;49.342;10.802;2024-03-02T04:18:54;5.90;99.90
11152;DHT22;5630;49.342;10.802;2024-03-02T04:21:20;5.90;99.90
11152;DHT22;5630;49.342;10.802;2024-03-02T04:23:45;5.90;99.90
11152;DHT22;5630;49.342;10.802;2024-03-02T04:26:11;5.90;99.90
11152;DHT22;5630;49.342;10.802;2024-03-02T04:28:37;5.90;99.90
11152;DHT22;5630;49.342;10.802;2024-03-02T04:31:02;5.90;99.90
11152;DHT22;5630;49.342;10.802;2024-03-02T04:33:28;5.90;99.90
11152;DHT22;5630;49.342;10.802;2024-03-02T04:35:53;5.80;99.90
11152;DHT22;5630;49.342;10.802;2024-03-02T04:38:19;5.80;99.90
11152;DHT22;5630;49.342;10.802;2024-03-02T04:40:44;5.80;99.90
11152;DHT22;5630;49.342;10.802;2024-03-02T04:43:10;5.80;99.90
11152;DHT22;5630;49.342;10.802;2024-03-02T04:45:38;5.80;99.90
11152;DHT22;5630;49.342;10.802;2024-03-02T04:48:04;5.80;99.90
11152;DHT22;5630;49.342;10.802;2024-03-02T04:50:29;5.80;99.90
11152;DHT22;5630;49.342;10.802;2024-03-02T04:52:55;5.70;99.90
11152;DHT22;5630;49.342;10.802;2024-03-02T04:55:21;5.80;99.90
11152;DHT22;5630;49.342;10.802;2024-03-02T04:58:09;5.70;99.90
11152;DHT22;5630;49.342;10.802;2024-03-02T05:00:35;5.70;99.90
11152;DHT22;5630;49.342;10.802;2024-03-02T05:03:01;5.70;99.90
11152;DHT22;5630;49.342;10.802;2024-03-02T05:05:27;5.70;99.90
11152;DHT22;5630;49.342;10.802;2024-03-02T05:07:52;5.70;99.90
11152;DHT22;5630;49.342;10.802;2024-03-02T05:10:18;5.70;99.90
11152;DHT22;5630;49.342;10.802;2024-03-02T05:12:43;5.70;99.90
11152;DHT22;5630;49.342;10.802;2024-03-02T05:15:13;5.70;99.90
11152;DHT22;5630;49.342;10.802;2024-03-02T05:17:40;5.70;99.90
11152;DHT22;5630;49.342;10.802;2024-03-02T05:20:09;5.70;99.90
11152;DHT22;5630;49.342;10.802;2024-03-02T05:22:34;5.60;99.90
11152;DHT22;5630;49.342;10.802;2024-03-02T05:25:01;5.60;99.90
11152;DHT22;5630;49.342;10.802;2024-03-02T05:27:27;5.60;99.90
11152;DHT22;5630;49.342;10.802;2024-03-02T05:29:53;5.60;99.90
11152;DHT22;5630;49.342;10.802;2024-03-02T05:32:18;5.50;99.90
11152;DHT22;5630;49.342;10.802;2024-03-02T05:34:44;5.50;99.90
11152;DHT22;5630;49.342;10.802;2024-03-02T05:37:10;5.50;99.90
11152;DHT22;5630;49.342;10.802;2024-03-02T05:39:35;5.50;99.90
11152;DHT22;5630;49.342;10.802;2024-03-02T05:42:01;5.40;99.90
11152;DHT22;5630;49.342;10.802;2024-03-02T05:44:26;5.40;99.90
11152;DHT22;5630;49.342;10.802;2024-03-02T05:46:52;5.40;99.90
11152;DHT22;5630;49.342;10.802;2024-03-02T05:49:18;5.40;99.90
11152;DHT22;5630;49.342;10.802;2024-03-02T05:51:43;5.50;99.90
11152;DHT22;5630;49.342;10.802;2024-03-02T05:54:09;5.50;99.90
11152;DHT22;5630;49.342;10.802;2024-03-02T05:56:35;5.50;99.90
11152;DHT22;5630;49.342;10.802;2024-03-02T05:59:00;5.40;99.90
11152;DHT22;5630;49.342;10.802;2024-03-02T06:01:46;5.40;99.90
11152;DHT22;5630;49.342;10.802;2024-03-02T06:04:13;5.40;99.90
11152;DHT22;5630;49.342;10.802;2024-03-02T06:06:40;5.50;99.90
11152;DHT22;5630;49.342;10.802;2024-03-02T06:09:06;5.50;99.90
11152;DHT22;5630;49.342;10.802;2024-03-02T06:11:36;5.50;99.90
11152;DHT22;5630;49.342;10.802;2024-03-02T06:14:03;5.50;99.90
11152;DHT22;5630;49.342;10.802;2024-03-02T06:16:29;5.50;99.90
11152;DHT22;5630;49.342;10.802;2024-03-02T06:18:55;5.60;99.90
11152;DHT22;5630;49.342;10.802;2024-03-02T06:21:23;5.50;99.90
11152;DHT22;5630;49.342;10.802;2024-03-02T06:23:49;5.60;99.90
11152;DHT22;5630;49.342;10.802;2024-03-02T06:26:14;5.50;99.90
11152;DHT22;5630;49.342;10.802;2024-03-02T06:28:40;5.60;99.90
11152;DHT22;5630;49.342;10.802;2024-03-02T06:31:05;5.60;99.90
11152;DHT22;5630;49.342;10.802;2024-03-02T06:33:31;5.60;99.90
11152;DHT22;5630;49.342;10.802;2024-03-02T06:35:56;5.60;99.90
11152;DHT22;5630;49.342;10.802;2024-03-02T06:38:22;5.70;99.90
11152;DHT22;5630;49.342;10.802;2024-03-02T06:40:47;5.70;99.90
11152;DHT22;5630;49.342;10.802;2024-03-02T06:43:13;5.70;99.90
11152;DHT22;5630;49.342;10.802;2024-03-02T06:45:39;5.70;99.90
11152;DHT22;5630;49.342;10.802;2024-03-02T06:48:04;5.80;99.90
11152;DHT22;5630;49.342;10.802;2024-03-02T06:50:30;5.80;99.90
11152;DHT22;5630;49.342;10.802;2024-03-02T06:52:56;5.80;99.90
11152;DHT22;5630;49.342;10.802;2024-03-02T06:55:22;5.80;99.90
11152;DHT22;5630;49.342;10.802;2024-03-02T06:57:47;5.90;99.90
11152;DHT22;5630;49.342;10.802;2024-03-02T07:00:13;5.90;99.90
11152;DHT22;5630;49.342;10.802;2024-03-02T07:02:39;6.00;99.90
11152;DHT22;5630;49.342;10.802;2024-03-02T07:05:07;6.00;99.90
11152;DHT22;5630;49.342;10.802;2024-03-02T07:07:33;6.10;99.90
11152;DHT22;5630;49.342;10.802;2024-03-02T07:10:00;6.10;99.90
11152;DHT22;5630;49.342;10.802;2024-03-02T07:12:26;6.20;99.90
11152;DHT22;5630;49.342;10.802;2024-03-02T07:14:52;6.20;99.90
11152;DHT22;5630;49.342;10.802;2024-03-02T07:17:32;6.20;99.90
11152;DHT22;5630;49.342;10.802;2024-03-02T07:19:58;6.30;99.90
11152;DHT22;5630;49.342;10.802;2024-03-02T07:22:24;6.30;99.90
11152;DHT22;5630;49.342;10.802;2024-03-02T07:24:50;6.40;99.90
11152;DHT22;5630;49.342;10.802;2024-03-02T07:27:16;6.40;99.90
11152;DHT22;5630;49.342;10.802;2024-03-02T07:29:42;6.50;99.90
11152;DHT22;5630;49.342;10.802;2024-03-02T07:32:09;6.50;99.90
11152;DHT22;5630;49.342;10.802;2024-03-02T07:34:36;6.60;99.90
11152;DHT22;5630;49.342;10.802;2024-03-02T07:37:03;6.60;99.90
11152;DHT22;5630;49.342;10.802;2024-03-02T07:39:29;6.60;99.90
11152;DHT22;5630;49.342;10.802;2024-03-02T07:41:55;6.70;99.90
11152;DHT22;5630;49.342;10.802;2024-03-02T07:44:21;6.80;99.90
11152;DHT22;5630;49.342;10.802;2024-03-02T07:46:47;6.80;99.90
11152;DHT22;5630;49.342;10.802;2024-03-02T07:49:15;6.90;99.90
11152;DHT22;5630;49.342;10.802;2024-03-02T07:51:40;6.90;99.90
11152;DHT22;5630;49.342;10.802;2024-03-02T07:58:58;7.40;99.90
11152;DHT22;5630;49.342;10.802;2024-03-02T08:01:28;9.40;99.90
11152;DHT22;5630;49.342;10.802;2024-03-02T08:06:24;9.80;99.90
11152;DHT22;5630;49.342;10.802;2024-03-02T08:08:56;9.80;99.90
11152;DHT22;5630;49.342;10.802;2024-03-02T08:11:22;9.60;99.90
11152;DHT22;5630;49.342;10.802;2024-03-02T08:13:48;9.50;99.90
11152;DHT22;5630;49.342;10.802;2024-03-02T08:16:18;9.30;99.90
11152;DHT22;5630;49.342;10.802;2024-03-02T08:18:46;9.10;99.90
11152;DHT22;5630;49.342;10.802;2024-03-02T08:21:12;9.10;99.90
11152;DHT22;5630;49.342;10.802;2024-03-02T08:23:38;9.10;99.90
11152;DHT22;5630;49.342;10.802;2024-03-02T08:26:06;9.00;99.90
11152;DHT22;5630;49.342;10.802;2024-03-02T08:28:32;9.10;99.90
11152;DHT22;5630;49.342;10.802;2024-03-02T08:30:58;9.20;99.90
11152;DHT22;5630;49.342;10.802;2024-03-02T08:33:23;9.10;99.90
11152;DHT22;5630;49.342;10.802;2024-03-02T08:35:49;9.20;99.90
11152;DHT22;5630;49.342;10.802;2024-03-02T08:38:15;9.30;99.90
11152;DHT22;5630;49.342;10.802;2024-03-02T08:40:41;9.30;99.90
11152;DHT22;5630;49.342;10.802;2024-03-02T08:43:06;9.30;99.90
11152;DHT22;5630;49.342;10.802;2024-03-02T08:45:32;9.40;99.90
11152;DHT22;5630;49.342;10.802;2024-03-02T08:47:59;9.30;99.90
11152;DHT22;5630;49.342;10.802;2024-03-02T08:50:25;9.30;99.90
11152;DHT22;5630;49.342;10.802;2024-03-02T08:52:50;9.30;99.90
11152;DHT22;5630;49.342;10.802;2024-03-02T08:55:16;9.20;99.90
11152;DHT22;5630;49.342;10.802;2024-03-02T08:57:41;9.20;99.90
11152;DHT22;5630;49.342;10.802;2024-03-02T09:00:07;9.20;99.90
11152;DHT22;5630;49.342;10.802;2024-03-02T09:02:34;9.30;99.90
11152;DHT22;5630;49.342;10.802;2024-03-02T09:04:59;9.40;99.90
11152;DHT22;5630;49.342;10.802;2024-03-02T09:07:25;9.40;99.90
11152;DHT22;5630;49.342;10.802;2024-03-02T09:09:51;9.60;99.90
11152;DHT22;5630;49.342;10.802;2024-03-02T09:12:18;9.60;99.90
11152;DHT22;5630;49.342;10.802;2024-03-02T09:14:43;9.70;99.90
11152;DHT22;5630;49.342;10.802;2024-03-02T09:17:09;9.80;99.90
11152;DHT22;5630;49.342;10.802;2024-03-02T09:19:36;9.80;99.90
11152;DHT22;5630;49.342;10.802;2024-03-02T09:22:02;9.90;99.90
11152;DHT22;5630;49.342;10.802;2024-03-02T09:24:28;10.00;99.90
11152;DHT22;5630;49.342;10.802;2024-03-02T09:26:54;9.90;99.90
11152;DHT22;5630;49.342;10.802;2024-03-02T09:29:19;10.00;99.90
11152;DHT22;5630;49.342;10.802;2024-03-02T09:31:46;10.20;99.90
11152;DHT22;5630;49.342;10.802;2024-03-02T09:34:12;10.20;99.90
11152;DHT22;5630;49.342;10.802;2024-03-02T09:36:37;10.30;99.90
11152;DHT22;5630;49.342;10.802;2024-03-02T09:39:03;10.30;99.90
11152;DHT22;5630;49.342;10.802;2024-03-02T09:41:29;10.40;99.90
11152;DHT22;5630;49.342;10.802;2024-03-02T09:43:55;10.50;99.90
11152;DHT22;5630;49.342;10.802;2024-03-02T09:46:21;10.60;99.90
11152;DHT22;5630;49.342;10.802;2024-03-02T09:48:46;10.60;99.90
11152;DHT22;5630;49.342;10.802;2024-03-02T09:51:12;10.60;99.90
11152;DHT22;5630;49.342;10.802;2024-03-02T09:53:38;10.80;99.90
11152;DHT22;5630;49.342;10.802;2024-03-02T09:56:04;10.90;99.90
11152;DHT22;5630;49.342;10.802;2024-03-02T09:58:30;11.00;99.90
11152;DHT22;5630;49.342;10.802;2024-03-02T10:00:56;11.00;99.90
11152;DHT22;5630;49.342;10.802;2024-03-02T10:03:23;11.00;99.90
11152;DHT22;5630;49.342;10.802;2024-03-02T10:05:52;11.10;99.90
11152;DHT22;5630;49.342;10.802;2024-03-02T10:08:18;11.20;99.90
11152;DHT22;5630;49.342;10.802;2024-03-02T10:10:43;11.40;99.90
11152;DHT22;5630;49.342;10.802;2024-03-02T10:13:11;11.50;99.90
11152;DHT22;5630;49.342;10.802;2024-03-02T10:15:38;11.60;99.90
11152;DHT22;5630;49.342;10.802;2024-03-02T10:18:11;11.60;99.90
11152;DHT22;5630;49.342;10.802;2024-03-02T10:20:37;11.60;99.90
11152;DHT22;5630;49.342;10.802;2024-03-02T10:23:14;11.70;99.90
11152;DHT22;5630;49.342;10.802;2024-03-02T10:25:40;11.80;99.90
11152;DHT22;5630;49.342;10.802;2024-03-02T10:28:06;11.80;99.90
11152;DHT22;5630;49.342;10.802;2024-03-02T10:30:32;11.80;99.90
11152;DHT22;5630;49.342;10.802;2024-03-02T10:33:01;11.80;99.90
11152;DHT22;5630;49.342;10.802;2024-03-02T10:35:27;11.90;99.90
11152;DHT22;5630;49.342;10.802;2024-03-02T10:37:53;12.10;99.90
11152;DHT22;5630;49.342;10.802;2024-03-02T10:40:21;12.20;99.90
11152;DHT22;5630;49.342;10.802;2024-03-02T10:42:47;12.40;99.90
11152;DHT22;5630;49.342;10.802;2024-03-02T10:45:15;12.50;99.90
11152;DHT22;5630;49.342;10.802;2024-03-02T10:47:42;12.60;99.90
11152;DHT22;5630;49.342;10.802;2024-03-02T10:50:08;12.80;99.90
11152;DHT22;5630;49.342;10.802;2024-03-02T10:52:35;12.80;99.90
11152;DHT22;5630;49.342;10.802;2024-03-02T10:55:01;12.90;99.90
11152;DHT22;5630;49.342;10.802;2024-03-02T10:57:27;12.90;99.90
11152;DHT22;5630;49.342;10.802;2024-03-02T11:00:02;13.00;99.90
11152;DHT22;5630;49.342;10.802;2024-03-02T11:02:30;13.10;99.90
11152;DHT22;5630;49.342;10.802;2024-03-02T11:04:56;13.30;99.90
11152;DHT22;5630;49.342;10.802;2024-03-02T11:07:26;13.40;99.90
11152;DHT22;5630;49.342;10.802;2024-03-02T11:10:01;13.50;99.90
11152;DHT22;5630;49.342;10.802;2024-03-02T11:12:42;13.50;99.90
11152;DHT22;5630;49.342;10.802;2024-03-02T11:15:11;13.70;99.90
11152;DHT22;5630;49.342;10.802;2024-03-02T11:17:40;13.90;99.90
11152;DHT22;5630;49.342;10.802;2024-03-02T11:20:07;13.70;99.90
11152;DHT22;5630;49.342;10.802;2024-03-02T11:22:35;13.70;99.90
11152;DHT22;5630;49.342;10.802;2024-03-02T11:25:05;13.70;99.90
11152;DHT22;5630;49.342;10.802;2024-03-02T11:33:10;14.10;99.90
11152;DHT22;5630;49.342;10.802;2024-03-02T11:35:45;14.20;99.90
11152;DHT22;5630;49.342;10.802;2024-03-02T11:38:12;14.30;99.90
11152;DHT22;5630;49.342;10.802;2024-03-02T11:40:41;14.40;99.90
11152;DHT22;5630;49.342;10.802;2024-03-02T11:43:07;14.50;99.90
11152;DHT22;5630;49.342;10.802;2024-03-02T11:45:36;14.50;99.90
11152;DHT22;5630;49.342;10.802;2024-03-02T11:48:06;14.50;99.90
11152;DHT22;5630;49.342;10.802;2024-03-02T11:50:41;14.50;99.90
11152;DHT22;5630;49.342;10.802;2024-03-02T11:53:09;14.50;99.90
11152;DHT22;5630;49.342;10.802;2024-03-02T11:55:36;14.50;99.90
11152;DHT22;5630;49.342;10.802;2024-03-02T11:58:03;14.50;99.90
11152;DHT22;5630;49.342;10.802;2024-03-02T12:00:29;14.40;99.90
11152;DHT22;5630;49.342;10.802;2024-03-02T12:05:27;14.40;99.90
11152;DHT22;5630;49.342;10.802;2024-03-02T12:08:01;14.40;99.90
11152;DHT22;5630;49.342;10.802;2024-03-02T12:10:27;14.50;99.90
11152;DHT22;5630;49.342;10.802;2024-03-02T12:13:00;14.60;99.90
11152;DHT22;5630;49.342;10.802;2024-03-02T12:15:31;14.60;99.90
11152;DHT22;5630;49.342;10.802;2024-03-02T12:17:59;14.60;99.90
11152;DHT22;5630;49.342;10.802;2024-03-02T12:20:26;14.60;99.90
11152;DHT22;5630;49.342;10.802;2024-03-02T12:22:53;14.40;99.90
11152;DHT22;5630;49.342;10.802;2024-03-02T12:25:20;14.30;99.90
11152;DHT22;5630;49.342;10.802;2024-03-02T12:27:47;14.30;99.90
11152;DHT22;5630;49.342;10.802;2024-03-02T12:30:13;14.30;99.90
11152;DHT22;5630;49.342;10.802;2024-03-02T12:32:40;14.00;99.90
11152;DHT22;5630;49.342;10.802;2024-03-02T12:35:06;13.90;99.90
11152;DHT22;5630;49.342;10.802;2024-03-02T12:37:32;14.00;99.90
11152;DHT22;5630;49.342;10.802;2024-03-02T12:39:58;14.00;99.90
11152;DHT22;5630;49.342;10.802;2024-03-02T12:42:24;14.00;99.90
11152;DHT22;5630;49.342;10.802;2024-03-02T12:44:52;14.00;99.90
11152;DHT22;5630;49.342;10.802;2024-03-02T12:47:20;14.30;99.90
11152;DHT22;5630;49.342;10.802;2024-03-02T12:49:46;14.50;99.90
11152;DHT22;5630;49.342;10.802;2024-03-02T12:52:14;14.20;99.90
11152;DHT22;5630;49.342;10.802;2024-03-02T12:54:40;14.40;99.90
11152;DHT22;5630;49.342;10.802;2024-03-02T12:57:06;14.30;99.90
11152;DHT22;5630;49.342;10.802;2024-03-02T12:59:31;14.50;99.90
11152;DHT22;5630;49.342;10.802;2024-03-02T13:01:57;14.60;99.90
11152;DHT22;5630;49.342;10.802;2024-03-02T13:04:27;14.50;99.90
11152;DHT22;5630;49.342;10.802;2024-03-02T13:06:54;14.50;99.90
11152;DHT22;5630;49.342;10.802;2024-03-02T13:09:23;14.60;99.90
11152;DHT22;5630;49.342;10.802;2024-03-02T13:11:49;14.70;99.90
11152;DHT22;5630;49.342;10.802;2024-03-02T13:14:14;14.90;99.90
11152;DHT22;5630;49.342;10.802;2024-03-02T13:16:41;15.00;99.90
11152;DHT22;5630;49.342;10.802;2024-03-02T13:19:11;15.20;99.90
11152;DHT22;5630;49.342;10.802;2024-03-02T13:21:37;15.20;99.90
11152;DHT22;5630;49.342;10.802;2024-03-02T13:24:04;15.10;99.90
11152;DHT22;5630;49.342;10.802;2024-03-02T13:26:29;15.10;99.90
11152;DHT22;5630;49.342;10.802;2024-03-02T13:28:55;15.20;99.90
11152;DHT22;5630;49.342;10.802;2024-03-02T13:31:21;15.30;99.90
11152;DHT22;5630;49.342;10.802;2024-03-02T13:33:46;15.30;99.90
11152;DHT22;5630;49.342;10.802;2024-03-02T13:36:12;15.30;99.90
11152;DHT22;5630;49.342;10.802;2024-03-02T13:38:38;15.30;99.90
11152;DHT22;5630;49.342;10.802;2024-03-02T13:41:03;15.10;99.90
11152;DHT22;5630;49.342;10.802;2024-03-02T13:43:29;14.90;99.90
11152;DHT22;5630;49.342;10.802;2024-03-02T13:45:58;14.60;99.90
11152;DHT22;5630;49.342;10.802;2024-03-02T13:48:23;14.80;99.90
11152;DHT22;5630;49.342;10.802;2024-03-02T13:50:51;14.80;99.90
11152;DHT22;5630;49.342;10.802;2024-03-02T13:53:18;14.50;99.90
11152;DHT22;5630;49.342;10.802;2024-03-02T13:55:44;14.60;99.90
11152;DHT22;5630;49.342;10.802;2024-03-02T13:58:10;14.60;99.90
11152;DHT22;5630;49.342;10.802;2024-03-02T14:00:37;14.70;99.90
11152;DHT22;5630;49.342;10.802;2024-03-02T14:03:04;14.90;99.90
11152;DHT22;5630;49.342;10.802;2024-03-02T14:05:30;14.90;99.90
11152;DHT22;5630;49.342;10.802;2024-03-02T14:07:56;15.00;99.90
11152;DHT22;5630;49.342;10.802;2024-03-02T14:10:21;15.20;99.90
11152;DHT22;5630;49.342;10.802;2024-03-02T14:12:48;15.30;99.90
11152;DHT22;5630;49.342;10.802;2024-03-02T14:15:14;15.30;99.90
11152;DHT22;5630;49.342;10.802;2024-03-02T14:17:40;15.30;99.90
11152;DHT22;5630;49.342;10.802;2024-03-02T14:20:06;15.10;99.90
11152;DHT22;5630;49.342;10.802;2024-03-02T14:22:32;15.20;99.90
11152;DHT22;5630;49.342;10.802;2024-03-02T14:24:59;15.20;99.90
11152;DHT22;5630;49.342;10.802;2024-03-02T14:27:25;15.30;99.90
11152;DHT22;5630;49.342;10.802;2024-03-02T14:29:51;15.10;99.90
11152;DHT22;5630;49.342;10.802;2024-03-02T14:32:16;15.10;99.90
11152;DHT22;5630;49.342;10.802;2024-03-02T14:34:42;14.90;99.90
11152;DHT22;5630;49.342;10.802;2024-03-02T14:37:08;14.80;99.90
11152;DHT22;5630;49.342;10.802;2024-03-02T14:39:34;14.80;99.90
11152;DHT22;5630;49.342;10.802;2024-03-02T14:42:01;14.70;99.90
11152;DHT22;5630;49.342;10.802;2024-03-02T14:44:27;14.50;99.90
11152;DHT22;5630;49.342;10.802;2024-03-02T14:46:52;14.20;99.90
11152;DHT22;5630;49.342;10.802;2024-03-02T14:49:18;14.20;99.90
11152;DHT22;5630;49.342;10.802;2024-03-02T14:51:44;14.20;99.90
11152;DHT22;5630;49.342;10.802;2024-03-02T14:54:10;14.20;99.90
11152;DHT22;5630;49.342;10.802;2024-03-02T14:56:35;14.00;99.90
11152;DHT22;5630;49.342;10.802;2024-03-02T14:59:01;13.90;99.90
11152;DHT22;5630;49.342;10.802;2024-03-02T15:01:27;13.90;99.90
11152;DHT22;5630;49.342;10.802;2024-03-02T15:03:53;13.80;99.90
11152;DHT22;5630;49.342;10.802;2024-03-02T15:06:19;13.70;99.90
11152;DHT22;5630;49.342;10.802;2024-03-02T15:08:45;13.60;99.90
11152;DHT22;5630;49.342;10.802;2024-03-02T15:11:12;13.50;99.90
11152;DHT22;5630;49.342;10.802;2024-03-02T15:13:38;13.50;99.90
11152;DHT22;5630;49.342;10.802;2024-03-02T15:16:04;13.30;99.90
11152;DHT22;5630;49.342;10.802;2024-03-02T15:18:30;13.30;99.90
11152;DHT22;5630;49.342;10.802;2024-03-02T15:20:56;13.20;99.90
11152;DHT22;5630;49.342;10.802;2024-03-02T15:23:21;13.20;99.90
11152;DHT22;5630;49.342;10.802;2024-03-02T15:25:47;13.10;99.90
11152;DHT22;5630;49.342;10.802;2024-03-02T15:28:12;13.00;99.90
11152;DHT22;5630;49.342;10.802;2024-03-02T15:30:38;13.10;99.90
11152;DHT22;5630;49.342;10.802;2024-03-02T15:33:04;13.00;99.90
11152;DHT22;5630;49.342;10.802;2024-03-02T15:35:29;12.90;99.90
11152;DHT22;5630;49.342;10.802;2024-03-02T15:37:55;12.80;99.90
11152;DHT22;5630;49.342;10.802;2024-03-02T15:40:21;12.70;99.90
11152;DHT22;5630;49.342;10.802;2024-03-02T15:42:47;12.60;99.90
11152;DHT22;5630;49.342;10.802;2024-03-02T15:45:12;12.50;99.90
11152;DHT22;5630;49.342;10.802;2024-03-02T15:47:38;12.30;99.90
11152;DHT22;5630;49.342;10.802;2024-03-02T15:50:04;12.30;99.90